Time;durP1;ratioP1;P1;durP2;ratioP2;P2;SDS_P1;SDS_P2;PMS_P1;PMS_P2;Temp;Humidity;BMP_temperature;BMP_pressure;BME280_temperature;BME280_humidity;BME280_pressure;Samples;Min_cycle;Max_cycle;Signal;HPM_P1;HPM_P2
2021/04/16 00:00:24;;;;;;;2.75;2.13;;;4.90;80.60;;;;;;4995947;28;20022;-36
2021/04/16 00:02:50;;;;;;;3.95;2.30;;;4.80;80.90;;;;;;5004622;28;20604;-35
2021/04/16 00:05:15;;;;;;;3.30;2.10;;;4.80;81.10;;;;;;4996029;28;20135;-34
2021/04/16 00:07:41;;;;;;;2.88;2.13;;;4.80;82.00;;;;;;5005799;28;20042;-38
2021/04/16 00:10:13;;;;;;;3.25;2.67;;;4.70;81.70;;;;;;4994314;28;20457;-36
2021/04/16 00:12:39;;;;;;;4.25;2.25;;;4.70;81.90;;;;;;5006513;28;20089;-38
2021/04/16 00:15:12;;;;;;;4.40;2.33;;;4.70;82.20;;;;;;4994140;28;20492;-32
2021/04/16 00:17:37;;;;;;;3.33;2.55;;;4.70;82.40;;;;;;5006319;28;20041;-38
2021/04/16 00:20:06;;;;;;;2.50;2.28;;;4.70;82.40;;;;;;4993910;28;20375;-38
2021/04/16 00:22:36;;;;;;;3.28;2.95;;;4.70;82.70;;;;;;5006432;28;20054;-38
2021/04/16 00:25:02;;;;;;;3.72;2.40;;;4.70;82.70;;;;;;4993741;28;20018;-38
2021/04/16 00:27:28;;;;;;;2.75;2.40;;;4.70;83.20;;;;;;5005770;28;20034;-36
2021/04/16 00:29:53;;;;;;;2.92;2.05;;;4.60;83.70;;;;;;4997158;28;20022;-37
2021/04/16 00:32:19;;;;;;;3.58;2.20;;;4.60;83.10;;;;;;4985079;28;20136;-35
2021/04/16 00:34:45;;;;;;;4.32;2.30;;;4.60;83.80;;;;;;4999418;28;20026;-42
2021/04/16 00:37:10;;;;;;;4.88;2.42;;;4.60;83.60;;;;;;5000641;28;20038;-37
2021/04/16 00:39:35;;;;;;;3.28;2.40;;;4.60;84.00;;;;;;5001683;28;20050;-37
2021/04/16 00:42:01;;;;;;;3.10;2.15;;;4.50;84.10;;;;;;4997317;28;20406;-34
2021/04/16 00:44:27;;;;;;;3.97;2.30;;;4.50;84.20;;;;;;5004072;28;20049;-34
2021/04/16 00:47:00;;;;;;;2.60;2.40;;;4.50;85.00;;;;;;4994598;28;20057;-38
2021/04/16 00:49:28;;;;;;;;;;;4.40;85.30;;;;;;4988394;28;20026;-38
2021/04/16 00:52:02;;;;;;;3.42;2.30;;;4.40;85.10;;;;;;4997555;28;19941;-38
2021/04/16 00:54:33;;;;;;;2.83;2.10;;;4.40;85.50;;;;;;4987683;28;20027;-37
2021/04/16 00:56:59;;;;;;;4.85;2.47;;;4.40;85.50;;;;;;4996922;28;20054;-38
2021/04/16 00:59:28;;;;;;;3.47;2.45;;;4.40;85.90;;;;;;4986141;28;20078;-38
2021/04/16 01:01:55;;;;;;;4.13;2.60;;;4.40;86.00;;;;;;4997345;28;20545;-34
2021/04/16 01:04:24;;;;;;;4.60;2.60;;;4.40;86.00;;;;;;4986921;28;20156;-35
2021/04/16 01:06:51;;;;;;;5.32;2.50;;;4.40;86.40;;;;;;4998074;28;20492;-33
2021/04/16 01:09:17;;;;;;;4.18;2.63;;;4.40;86.30;;;;;;4986398;28;20030;-36
2021/04/16 01:11:42;;;;;;;3.45;2.80;;;4.40;86.60;;;;;;4998203;28;20618;-34
2021/04/16 01:14:08;;;;;;;4.57;2.92;;;4.40;86.90;;;;;;4985842;28;20034;-34
2021/04/16 01:16:35;;;;;;;4.93;2.65;;;4.40;87.10;;;;;;4996115;28;20045;-36
2021/04/16 01:19:07;;;;;;;4.18;2.67;;;4.30;87.10;;;;;;4987336;28;20040;-35
2021/04/16 01:21:41;;;;;;;4.32;3.10;;;4.30;87.40;;;;;;4993837;28;20493;-37
2021/04/16 01:24:23;;;;;;;4.50;2.80;;;4.30;87.60;;;;;;4988353;28;20041;-37
2021/04/16 01:26:49;;;;;;;3.90;2.80;;;4.30;87.80;;;;;;4995087;28;20164;-36
2021/04/16 01:29:16;;;;;;;5.22;3.20;;;4.20;87.90;;;;;;4988111;28;20660;-37
2021/04/16 01:31:47;;;;;;;5.93;2.85;;;4.20;88.30;;;;;;4992624;28;20028;-37
2021/04/16 01:34:33;;;;;;;3.90;2.80;;;4.20;88.60;;;;;;4990267;28;20114;-33
2021/04/16 01:37:01;;;;;;;4.95;2.90;;;4.20;88.90;;;;;;4993057;28;20037;-37
2021/04/16 01:39:28;;;;;;;4.97;2.85;;;4.20;89.10;;;;;;4989526;28;20023;-34
2021/04/16 01:41:55;;;;;;;4.78;3.10;;;4.20;89.50;;;;;;4990982;28;20037;-35
2021/04/16 01:44:24;;;;;;;4.80;3.45;;;4.10;89.60;;;;;;4991503;28;20144;-41
2021/04/16 01:46:57;;;;;;;4.65;3.10;;;4.10;89.90;;;;;;4988879;28;20093;-37
2021/04/16 01:49:32;;;;;;;6.55;3.80;;;4.10;90.00;;;;;;4986803;28;20032;-36
2021/04/16 01:51:58;;;;;;;5.63;3.35;;;4.00;90.10;;;;;;4988744;28;20055;-37
2021/04/16 01:54:34;;;;;;;5.35;3.67;;;4.00;90.20;;;;;;4993576;28;20418;-34
2021/04/16 01:57:05;;;;;;;5.70;3.20;;;3.90;90.40;;;;;;4987076;28;20080;-38
2021/04/16 01:59:34;;;;;;;4.78;3.53;;;3.90;90.50;;;;;;4993898;28;20795;-39
2021/04/16 02:02:01;;;;;;;5.25;3.08;;;3.80;90.60;;;;;;4986279;28;20048;-38
2021/04/16 02:04:26;;;;;;;5.30;3.60;;;3.80;90.70;;;;;;4993703;28;20034;-38
2021/04/16 02:06:53;;;;;;;4.07;3.00;;;3.70;90.80;;;;;;5003153;28;20037;-38
2021/04/16 02:09:25;;;;;;;4.20;3.30;;;3.70;90.90;;;;;;4993683;28;20026;-37
2021/04/16 02:11:51;;;;;;;5.40;3.45;;;3.70;91.00;;;;;;5003667;28;20030;-37
2021/04/16 02:14:20;;;;;;;6.32;3.22;;;3.60;91.20;;;;;;4993234;28;20014;-36
2021/04/16 02:16:48;;;;;;;7.35;3.85;;;3.60;91.30;;;;;;5004167;28;20030;-37
2021/04/16 02:19:14;;;;;;;5.18;3.53;;;3.60;91.50;;;;;;4992297;28;20018;-36
2021/04/16 02:21:41;;;;;;;6.68;3.80;;;3.60;91.60;;;;;;5004668;28;20048;-34
2021/04/16 02:24:08;;;;;;;5.80;3.47;;;3.60;91.70;;;;;;4991678;28;20636;-34
2021/04/16 02:26:34;;;;;;;5.35;3.17;;;3.60;91.80;;;;;;5004605;28;20056;-35
2021/04/16 02:29:00;;;;;;;5.32;3.40;;;3.60;91.90;;;;;;4993838;28;20415;-38
2021/04/16 02:31:28;;;;;;;6.82;3.95;;;3.50;92.00;;;;;;5002546;28;20102;-36
2021/04/16 02:33:54;;;;;;;7.57;3.97;;;3.60;92.10;;;;;;4995683;28;20029;-37
2021/04/16 02:36:24;;;;;;;4.20;3.08;;;3.50;92.10;;;;;;5000321;28;20096;-38
2021/04/16 02:38:53;;;;;;;7.20;3.63;;;3.50;92.20;;;;;;4997661;28;20026;-38
2021/04/16 02:41:19;;;;;;;5.95;3.67;;;3.50;92.30;;;;;;4999070;28;20054;-37
2021/04/16 02:43:45;;;;;;;4.53;3.55;;;3.40;92.60;;;;;;4999665;28;20054;-38
2021/04/16 02:46:11;;;;;;;4.95;3.65;;;3.40;92.40;;;;;;4996110;28;20026;-37
2021/04/16 02:48:36;;;;;;;8.43;3.92;;;3.40;92.50;;;;;;4994079;28;20126;-37
2021/04/16 02:51:02;;;;;;;5.78;3.90;;;3.40;92.60;;;;;;4995110;28;20062;-38
2021/04/16 02:53:28;;;;;;;6.47;4.00;;;3.40;92.60;;;;;;4985503;28;20022;-38
2021/04/16 02:55:53;;;;;;;7.85;4.18;;;3.40;92.70;;;;;;4995200;28;20026;-35
2021/04/16 02:58:19;;;;;;;5.72;3.50;;;3.40;92.80;;;;;;4984290;28;20505;-37
2021/04/16 03:00:44;;;;;;;5.30;3.80;;;3.40;92.90;;;;;;4996149;28;20105;-37
2021/04/16 03:03:10;;;;;;;10.43;4.20;;;3.40;92.90;;;;;;4984510;28;20623;-37
2021/04/16 03:05:36;;;;;;;5.57;3.83;;;3.30;93.00;;;;;;4996757;28;20556;-37
2021/04/16 03:08:04;;;;;;;6.22;3.92;;;3.30;93.00;;;;;;4987995;28;20117;-37
2021/04/16 03:10:37;;;;;;;7.57;3.97;;;3.30;93.10;;;;;;4999076;28;20093;-33
2021/04/16 03:13:03;;;;;;;8.18;4.53;;;3.30;93.20;;;;;;4987285;28;20026;-38
2021/04/16 03:15:29;;;;;;;8.10;3.78;;;3.20;93.20;;;;;;4997326;28;20430;-35
2021/04/16 03:17:55;;;;;;;5.80;3.50;;;3.30;93.40;;;;;;4990387;28;20084;-37
2021/04/16 03:20:22;;;;;;;7.60;4.00;;;3.20;93.40;;;;;;4994359;28;20060;-37
2021/04/16 03:22:50;;;;;;;6.63;3.90;;;3.20;93.50;;;;;;4992629;28;20080;-35
2021/04/16 03:25:17;;;;;;;7.25;3.83;;;3.20;93.50;;;;;;4992617;28;20120;-34
2021/04/16 03:27:43;;;;;;;7.72;3.92;;;3.20;93.60;;;;;;4993681;28;20046;-37
2021/04/16 03:30:12;;;;;;;6.97;3.90;;;3.20;93.60;;;;;;4990333;28;20407;-36
2021/04/16 03:32:38;;;;;;;8.82;4.00;;;3.20;93.70;;;;;;4996301;28;20037;-34
2021/04/16 03:35:05;;;;;;;7.72;4.25;;;3.20;93.90;;;;;;4988070;28;20022;-38
2021/04/16 03:37:30;;;;;;;6.95;3.85;;;3.30;93.90;;;;;;4997715;28;20034;-38
2021/04/16 03:39:56;;;;;;;6.57;4.05;;;3.30;94.00;;;;;;4988424;28;20096;-38
2021/04/16 03:42:21;;;;;;;4.68;3.58;;;3.20;94.00;;;;;;4998087;28;20022;-36
2021/04/16 03:44:47;;;;;;;7.22;3.55;;;3.20;94.00;;;;;;4987205;28;20489;-36
2021/04/16 03:47:16;;;;;;;8.23;3.92;;;3.20;94.10;;;;;;4999423;28;20789;-40
2021/04/16 03:49:43;;;;;;;7.38;4.07;;;3.30;94.20;;;;;;4988606;28;20026;-37
2021/04/16 03:52:08;;;;;;;8.73;4.07;;;3.20;94.20;;;;;;4993682;28;20049;-37
2021/04/16 03:54:37;;;;;;;7.40;4.82;;;3.20;94.30;;;;;;5006275;28;20361;-35
2021/04/16 03:57:05;;;;;;;8.15;4.32;;;3.30;94.40;;;;;;4994255;28;20100;-38
2021/04/16 03:59:30;;;;;;;7.05;3.70;;;3.20;94.40;;;;;;5006005;28;20057;-37
2021/04/16 04:01:56;;;;;;;6.35;3.97;;;3.30;94.50;;;;;;4996766;28;20069;-38
2021/04/16 04:04:24;;;;;;;9.90;4.10;;;3.20;94.50;;;;;;5003591;28;20057;-37
2021/04/16 04:06:50;;;;;;;6.80;4.35;;;3.20;94.50;;;;;;4999378;28;20041;-38
2021/04/16 04:09:17;;;;;;;10.95;4.63;;;3.20;94.60;;;;;;5001033;28;20149;-35
2021/04/16 04:11:43;;;;;;;11.05;4.75;;;3.20;94.60;;;;;;5001720;28;20079;-41
2021/04/16 04:14:09;;;;;;;6.45;4.45;;;3.20;94.70;;;;;;4998098;28;20030;-37
2021/04/16 04:16:55;;;;;;;9.20;4.38;;;3.20;94.80;;;;;;5003323;28;20135;-39
2021/04/16 04:19:22;;;;;;;10.65;4.60;;;3.20;94.80;;;;;;4998812;28;20552;-38
2021/04/16 04:21:49;;;;;;;7.30;4.70;;;3.10;94.90;;;;;;5003634;28;20026;-38
2021/04/16 04:24:15;;;;;;;19.27;6.07;;;3.10;94.90;;;;;;4996373;28;20054;-38
2021/04/16 04:26:41;;;;;;;11.30;5.22;;;3.10;95.00;;;;;;5004458;28;20030;-35
2021/04/16 04:29:07;;;;;;;7.95;4.90;;;3.10;95.10;;;;;;4994861;28;20492;-37
2021/04/16 04:31:34;;;;;;;10.70;4.60;;;3.10;95.10;;;;;;5004294;28;20038;-36
2021/04/16 04:33:59;;;;;;;10.85;5.25;;;3.10;95.20;;;;;;4997281;28;20117;-36
2021/04/16 04:36:25;;;;;;;8.00;4.65;;;3.10;95.20;;;;;;4986687;28;20133;-37
2021/04/16 04:38:52;;;;;;;9.55;4.95;;;3.10;95.20;;;;;;4997966;28;20033;-38
2021/04/16 04:41:18;;;;;;;10.05;4.50;;;3.10;95.20;;;;;;4986697;28;20046;-36
2021/04/16 04:43:44;;;;;;;8.30;4.78;;;3.20;95.20;;;;;;4998250;28;20084;-36
2021/04/16 04:46:10;;;;;;;8.20;4.40;;;3.20;95.20;;;;;;4985848;28;20465;-35
2021/04/16 04:48:41;;;;;;;12.80;5.35;;;3.20;95.20;;;;;;4997525;28;20026;-38
2021/04/16 04:51:07;;;;;;;11.05;4.63;;;3.30;95.20;;;;;;4986170;28;20042;-35
2021/04/16 04:53:33;;;;;;;9.73;5.43;;;3.30;95.20;;;;;;4993933;28;20030;-41
2021/04/16 04:55:59;;;;;;;6.97;4.82;;;3.30;95.10;;;;;;4989895;28;20034;-37
2021/04/16 04:58:25;;;;;;;7.20;4.30;;;3.30;95.00;;;;;;4990792;28;20321;-39
2021/04/16 05:00:50;;;;;;;8.25;4.05;;;3.40;95.00;;;;;;4992507;28;20038;-38
2021/04/16 05:03:16;;;;;;;8.20;4.60;;;3.40;94.90;;;;;;4989251;28;20501;-39
2021/04/16 05:05:44;;;;;;;7.07;4.63;;;3.40;94.90;;;;;;4994714;28;20045;-38
2021/04/16 05:08:10;;;;;;;6.65;4.45;;;3.40;94.90;;;;;;4987322;28;20109;-36
2021/04/16 05:10:35;;;;;;;7.95;5.45;;;3.30;94.90;;;;;;4996548;28;20414;-37
2021/04/16 05:13:01;;;;;;;8.77;4.63;;;3.30;94.90;;;;;;4987267;28;20482;-39
2021/04/16 05:15:26;;;;;;;8.38;6.00;;;3.20;94.90;;;;;;4996574;28;20029;-38
2021/04/16 05:17:52;;;;;;;9.88;5.75;;;3.20;95.00;;;;;;4985497;28;20038;-37
2021/04/16 05:20:22;;;;;;;7.30;4.40;;;3.20;95.00;;;;;;4997399;28;20544;-35
2021/04/16 05:22:47;;;;;;;12.38;5.22;;;3.30;95.10;;;;;;4984996;28;20496;-36
2021/04/16 05:25:13;;;;;;;7.30;4.60;;;3.30;95.10;;;;;;4997853;28;20049;-39
2021/04/16 05:27:39;;;;;;;7.78;4.40;;;3.30;95.00;;;;;;4984669;28;20105;-38
2021/04/16 05:30:12;;;;;;;5.93;4.38;;;3.30;95.00;;;;;;4995100;28;20026;-39
2021/04/16 05:32:38;;;;;;;6.05;4.30;;;3.40;95.00;;;;;;4984761;28;20077;-37
2021/04/16 05:35:05;;;;;;;7.07;4.63;;;3.40;95.00;;;;;;4993771;28;20069;-37
2021/04/16 05:37:31;;;;;;;7.28;4.50;;;3.40;95.00;;;;;;4987894;28;20116;-38
2021/04/16 05:39:56;;;;;;;7.93;4.95;;;3.40;95.10;;;;;;4991828;28;20018;-39
2021/04/16 05:42:22;;;;;;;6.88;4.60;;;3.40;95.10;;;;;;4990220;28;20030;-37
2021/04/16 05:44:48;;;;;;;7.68;4.90;;;3.40;95.10;;;;;;4988875;28;20068;-37
2021/04/16 05:47:14;;;;;;;9.52;4.50;;;3.40;95.10;;;;;;4993334;28;20034;-38
2021/04/16 05:49:40;;;;;;;8.95;4.88;;;3.40;95.10;;;;;;5000530;28;20349;-36
2021/04/16 05:52:06;;;;;;;8.00;4.70;;;3.40;95.10;;;;;;4987002;28;20462;-35
2021/04/16 05:54:31;;;;;;;9.93;5.38;;;3.50;95.10;;;;;;4984616;28;20021;-36
2021/04/16 05:56:57;;;;;;;6.63;4.68;;;3.50;95.30;;;;;;4993790;28;20042;-37
2021/04/16 05:59:22;;;;;;;7.85;4.68;;;3.60;95.10;;;;;;4985190;28;20034;-37
2021/04/16 06:01:48;;;;;;;10.68;4.75;;;3.60;95.30;;;;;;4995398;28;20565;-38
2021/04/16 06:04:20;;;;;;;11.00;5.28;;;3.70;95.20;;;;;;4984987;28;20026;-37
2021/04/16 06:06:46;;;;;;;10.27;4.82;;;3.70;95.20;;;;;;4995901;28;20033;-34
2021/04/16 06:09:11;;;;;;;12.45;4.88;;;3.80;95.10;;;;;;4984219;28;20030;-38
2021/04/16 06:11:37;;;;;;;8.88;5.05;;;3.80;95.30;;;;;;4995692;28;20026;-39
2021/04/16 06:14:04;;;;;;;6.68;4.40;;;3.90;95.20;;;;;;4984734;28;20034;-38
2021/04/16 06:16:30;;;;;;;6.95;4.63;;;4.00;95.00;;;;;;4991744;28;20125;-38
2021/04/16 06:18:58;;;;;;;6.40;4.65;;;4.00;94.90;;;;;;4987188;28;20512;-37
2021/04/16 06:21:24;;;;;;;10.93;4.70;;;4.10;94.90;;;;;;4992510;28;20026;-37
2021/04/16 06:23:49;;;;;;;5.40;3.85;;;4.10;94.80;;;;;;5002895;28;20036;-38
2021/04/16 06:26:15;;;;;;;7.85;4.47;;;4.10;94.80;;;;;;4998922;28;20114;-38
2021/04/16 06:28:41;;;;;;;6.63;4.35;;;4.20;94.70;;;;;;4992527;28;20096;-38
2021/04/16 06:31:07;;;;;;;6.78;4.55;;;4.20;94.70;;;;;;4986671;28;20069;-39
2021/04/16 06:33:35;;;;;;;9.93;5.10;;;4.20;94.60;;;;;;4994699;28;20534;-38
2021/04/16 06:36:09;;;;;;;8.25;4.53;;;4.30;94.70;;;;;;4986117;28;20175;-37
2021/04/16 06:38:37;;;;;;;6.25;4.43;;;4.30;94.60;;;;;;4993505;28;20038;-38
2021/04/16 06:41:10;;;;;;;9.80;4.57;;;4.40;94.50;;;;;;5003599;28;20195;-38
2021/04/16 06:43:39;;;;;;;;;;;4.50;94.50;;;;;;4997958;28;20057;-35
2021/04/16 06:46:12;;;;;;;7.47;4.60;;;4.50;94.40;;;;;;5006752;28;20130;-39
2021/04/16 06:48:40;;;;;;;7.97;4.57;;;4.60;94.30;;;;;;5000339;28;20029;-38
2021/04/16 06:51:06;;;;;;;7.30;4.47;;;4.60;94.20;;;;;;5007895;28;20495;-39
2021/04/16 06:53:56;;;;;;;10.85;5.10;;;4.70;94.20;;;;;;4996879;28;20025;-38
2021/04/16 06:56:35;;;;;;;8.52;4.55;;;4.80;94.10;;;;;;5007698;28;20392;-38
2021/04/16 06:59:19;;;;;;;10.35;5.10;;;4.80;94.00;;;;;;4999398;28;20430;-38
2021/04/16 07:01:53;;;;;;;;;;;4.80;94.00;;;;;;4990990;28;20033;-38
2021/04/16 07:04:25;;;;;;;10.32;5.57;;;4.90;94.00;;;;;;5000593;28;19936;-38
2021/04/16 07:06:53;;;;;;;7.90;4.93;;;4.80;94.00;;;;;;4972380;28;20030;-38
2021/04/16 07:09:29;;;;;;;10.23;5.63;;;4.90;94.10;;;;;;5000207;28;20072;-37
2021/04/16 07:12:12;;;;;;;11.45;5.68;;;4.90;94.20;;;;;;4990059;28;20088;-35
2021/04/16 07:14:44;;;;;;;8.40;5.47;;;5.00;94.20;;;;;;5000261;28;20040;-40
2021/04/16 07:17:12;;;;;;;;;;;5.10;94.20;;;;;;4990492;28;20049;-36
2021/04/16 07:19:37;;;;;;;9.70;4.95;;;5.20;94.00;;;;;;4999197;28;20512;-35
2021/04/16 07:22:07;;;;;;;7.88;4.95;;;5.30;93.90;;;;;;4988962;28;20130;-39
2021/04/16 07:24:33;;;;;;;15.40;5.97;;;5.30;93.70;;;;;;4996340;28;20018;-33
2021/04/16 07:27:23;;;;;;;8.68;4.55;;;5.40;93.50;;;;;;5007981;28;20117;-39
2021/04/16 07:29:53;;;;;;;7.95;4.45;;;5.50;93.30;;;;;;4997025;28;20037;-38
2021/04/16 07:32:31;;;;;;;8.07;5.15;;;5.60;93.10;;;;;;5008756;28;20037;-34
2021/04/16 07:35:24;;;;;;;15.57;6.10;;;5.70;92.70;;;;;;4996461;28;20049;-37
2021/04/16 07:38:01;;;;;;;9.88;4.63;;;5.80;92.50;;;;;;5006858;28;20042;-37
2021/04/16 07:40:32;;;;;;;9.40;4.38;;;5.90;92.30;;;;;;4996706;28;20029;-39
2021/04/16 07:42:58;;;;;;;6.93;4.10;;;5.90;91.90;;;;;;5006386;28;20030;-37
2021/04/16 07:45:35;;;;;;;7.53;4.50;;;6.00;91.70;;;;;;4997325;28;20384;-37
2021/04/16 07:48:19;;;;;;;7.80;4.00;;;6.10;91.40;;;;;;5004936;28;20109;-35
2021/04/16 07:50:56;;;;;;;5.75;3.90;;;6.30;91.20;;;;;;4999254;28;20606;-38
2021/04/16 07:53:30;;;;;;;7.78;4.05;;;6.30;90.90;;;;;;4989490;28;20030;-39
2021/04/16 07:56:15;;;;;;;5.80;3.60;;;6.40;90.80;;;;;;4998016;28;20054;-37
2021/04/16 07:59:05;;;;;;;5.55;3.70;;;6.50;90.70;;;;;;4989130;28;20169;-33
2021/04/16 08:01:35;;;;;;;4.70;3.47;;;6.60;90.40;;;;;;4980773;28;20125;-37
2021/04/16 08:04:11;;;;;;;8.50;4.10;;;6.70;90.00;;;;;;5002526;28;20025;-35
2021/04/16 08:06:41;;;;;;;7.13;3.13;;;6.80;90.00;;;;;;4992977;28;20110;-36
2021/04/16 08:09:26;;;;;;;7.82;3.60;;;6.80;90.00;;;;;;4989106;28;20032;-37
2021/04/16 08:12:00;;;;;;;6.28;3.47;;;6.90;88.70;;;;;;4994506;28;20180;-38
2021/04/16 08:14:31;;;;;;;4.60;2.90;;;7.10;87.80;;;;;;4989107;28;20136;-31
2021/04/16 08:17:17;;;;;;;7.05;3.40;;;7.20;86.20;;;;;;4994488;28;20117;-38
2021/04/16 08:19:43;;;;;;;7.35;3.67;;;7.30;84.20;;;;;;5003728;28;20048;-38
2021/04/16 08:22:22;;;;;;;5.70;3.20;;;7.40;83.90;;;;;;4996727;28;20053;-37
2021/04/16 08:24:48;;;;;;;7.68;3.55;;;7.40;83.90;;;;;;5004994;28;20030;-38
2021/04/16 08:27:51;;;;;;;7.75;3.40;;;7.50;83.80;;;;;;4996936;28;20034;-38
2021/04/16 08:30:28;;;;;;;3.65;2.13;;;7.60;82.80;;;;;;5002612;28;20121;-37
2021/04/16 08:33:01;;;;;;;3.08;2.28;;;7.60;83.10;;;;;;5000004;28;20140;-37
2021/04/16 08:35:51;;;;;;;4.57;2.70;;;7.70;82.20;;;;;;5002885;28;20018;-36
2021/04/16 08:38:21;;;;;;;3.85;2.20;;;7.70;78.50;;;;;;4999991;28;20042;-35
2021/04/16 08:40:50;;;;;;;6.70;1.90;;;7.80;79.30;;;;;;5001212;28;20086;-39
2021/04/16 08:43:56;;;;;;;3.50;2.10;;;7.90;77.70;;;;;;4999657;28;20030;-37
2021/04/16 08:46:35;;;;;;;3.13;2.03;;;8.00;77.50;;;;;;5002153;28;20018;-35
2021/04/16 08:49:10;;;;;;;3.65;1.70;;;8.10;77.80;;;;;;4999192;28;20053;-38
2021/04/16 08:51:41;;;;;;;2.80;1.67;;;8.20;77.90;;;;;;4999065;28;20028;-38
2021/04/16 08:54:24;;;;;;;3.67;1.90;;;8.20;75.00;;;;;;5005429;28;20030;-38
2021/04/16 08:57:01;;;;;;;4.15;2.42;;;8.30;73.90;;;;;;4992239;28;20639;-36
2021/04/16 08:59:34;;;;;;;3.85;2.20;;;8.40;72.20;;;;;;5004707;28;20032;-38
2021/04/16 09:02:37;;;;;;;4.15;2.08;;;8.40;72.20;;;;;;4996688;28;20030;-37
2021/04/16 09:05:16;;;;;;;3.20;2.05;;;8.40;70.30;;;;;;4969142;28;20073;-38
2021/04/16 09:07:58;;;;;;;2.60;1.58;;;8.50;69.90;;;;;;4998502;28;20034;-37
2021/04/16 09:10:24;;;;;;;3.10;2.00;;;8.60;68.50;;;;;;4986269;28;20541;-38
2021/04/16 09:12:54;;;;;;;4.05;1.70;;;8.60;68.70;;;;;;4991008;28;20114;-39
2021/04/16 09:15:20;;;;;;;2.88;1.73;;;8.70;69.60;;;;;;5006340;28;20068;-39
2021/04/16 09:17:51;;;;;;;3.53;1.80;;;8.70;70.10;;;;;;4994456;28;20062;-38
2021/04/16 09:20:24;;;;;;;2.90;1.80;;;8.80;69.20;;;;;;4986398;28;20113;-38
2021/04/16 09:22:55;;;;;;;4.20;2.58;;;8.80;68.10;;;;;;4996859;28;20113;-37
2021/04/16 09:25:29;;;;;;;3.03;1.80;;;8.80;67.70;;;;;;4987312;28;20038;-35
2021/04/16 09:28:15;;;;;;;3.78;1.90;;;8.90;67.40;;;;;;4995888;28;20026;-35
2021/04/16 09:30:41;;;;;;;5.95;2.00;;;8.90;66.30;;;;;;4985718;28;20398;-38
2021/04/16 09:33:24;;;;;;;4.60;2.35;;;8.90;65.60;;;;;;4994999;28;20076;-37
2021/04/16 09:36:08;;;;;;;4.25;2.20;;;9.00;66.00;;;;;;4986055;28;20030;-37
2021/04/16 09:38:55;;;;;;;2.67;1.60;;;9.10;65.60;;;;;;4997459;28;20100;-36
2021/04/16 09:41:25;;;;;;;4.65;1.40;;;9.10;60.90;;;;;;4985375;28;20142;-38
2021/04/16 09:43:54;;;;;;;2.55;1.55;;;9.10;61.30;;;;;;4997619;28;20037;-38
2021/04/16 09:46:35;;;;;;;5.10;1.75;;;9.20;62.10;;;;;;4985966;28;20417;-33
2021/04/16 09:49:05;;;;;;;3.75;1.75;;;9.20;61.50;;;;;;4988444;28;20385;-35
2021/04/16 09:51:32;;;;;;;4.13;1.70;;;9.20;62.10;;;;;;4985667;28;20026;-39
2021/04/16 09:54:13;;;;;;;3.42;1.58;;;9.20;63.40;;;;;;4990425;28;20030;-36
2021/04/16 09:57:01;;;;;;;2.15;1.30;;;9.30;62.60;;;;;;4991816;28;20505;-34
2021/04/16 09:59:36;;;;;;;2.53;1.50;;;9.30;62.10;;;;;;4998786;28;20511;-37
2021/04/16 10:02:11;;;;;;;1.83;1.60;;;9.40;61.40;;;;;;4985372;28;20093;-36
2021/04/16 10:05:04;;;;;;;2.25;1.63;;;9.30;61.10;;;;;;4996771;28;20041;-38
2021/04/16 10:08:17;;;;;;;3.15;1.90;;;9.30;62.10;;;;;;4997198;28;20060;-37
2021/04/16 10:10:43;;;;;;;3.92;1.92;;;9.40;63.20;;;;;;4924384;29;20228;-38
2021/04/16 10:13:14;;;;;;;4.25;1.90;;;9.40;62.20;;;;;;4981596;28;20038;-34
2021/04/16 10:15:44;;;;;;;2.33;1.60;;;9.50;61.20;;;;;;4997145;28;20053;-38
2021/04/16 10:18:34;;;;;;;2.50;1.40;;;9.50;62.10;;;;;;4990519;28;20045;-38
2021/04/16 10:21:16;;;;;;;3.58;1.70;;;9.60;62.10;;;;;;4996602;28;20239;-37
2021/04/16 10:24:38;;;;;;;3.25;1.52;;;9.70;61.60;;;;;;5007177;28;20045;-36
2021/04/16 10:33:36;;;;;;;3.53;1.20;;;9.80;60.30;;;;;;4994742;28;20034;-36
2021/04/16 12:40:25;;;;;;;2.55;1.40;;;11.90;50.40;;;;;;4999527;28;20722;-37
2021/04/16 12:42:53;;;;;;;2.60;1.20;;;11.90;50.70;;;;;;5003135;28;20137;-39
2021/04/16 12:45:20;;;;;;;1.60;1.00;;;12.00;51.40;;;;;;4998068;28;20025;-39
2021/04/16 12:47:46;;;;;;;2.13;1.35;;;12.00;51.60;;;;;;5005354;28;20512;-39
2021/04/16 12:50:17;;;;;;;3.53;1.70;;;12.00;51.10;;;;;;4999065;28;20053;-36
2021/04/16 12:52:42;;;;;;;2.20;1.20;;;12.10;50.90;;;;;;4986452;28;20399;-39
2021/04/16 12:55:11;;;;;;;2.00;1.48;;;12.10;50.80;;;;;;4999259;28;20030;-40
2021/04/16 12:57:38;;;;;;;2.47;1.33;;;12.10;50.70;;;;;;5003020;28;20077;-39
2021/04/16 13:00:09;;;;;;;2.42;1.48;;;12.10;51.10;;;;;;4995668;28;20343;-40
2021/04/16 13:02:35;;;;;;;2.17;1.10;;;12.10;51.10;;;;;;5004729;28;20040;-38
2021/04/16 13:05:06;;;;;;;3.30;1.40;;;12.20;51.30;;;;;;4996845;28;20045;-37
2021/04/16 13:07:31;;;;;;;3.35;1.55;;;12.20;51.00;;;;;;5001008;28;20028;-40
2021/04/16 13:10:00;;;;;;;1.65;1.30;;;12.20;49.00;;;;;;4991515;28;20034;-37
2021/04/16 13:12:25;;;;;;;2.05;1.30;;;12.30;48.10;;;;;;4983739;28;20068;-37
2021/04/16 13:14:51;;;;;;;3.15;1.20;;;12.40;47.70;;;;;;4989927;28;20038;-38
2021/04/16 13:17:23;;;;;;;1.20;0.95;;;12.40;48.00;;;;;;4997552;28;20034;-38
2021/04/16 13:19:50;;;;;;;2.08;1.48;;;12.40;48.60;;;;;;5002137;28;20022;-39
2021/04/16 13:22:19;;;;;;;1.73;1.20;;;12.40;48.30;;;;;;4996764;28;20042;-38
2021/04/16 13:24:47;;;;;;;1.83;1.33;;;12.40;48.00;;;;;;5000817;28;20022;-40
2021/04/16 13:27:16;;;;;;;2.17;1.55;;;12.50;48.20;;;;;;4996818;28;20045;-41
2021/04/16 13:29:42;;;;;;;4.80;2.00;;;12.50;48.20;;;;;;4986993;28;20073;-37
2021/04/16 13:32:14;;;;;;;2.83;1.40;;;12.50;47.70;;;;;;4995881;28;20022;-37
2021/04/16 13:34:42;;;;;;;3.97;1.85;;;12.60;48.20;;;;;;5003295;28;20030;-38
2021/04/16 13:37:12;;;;;;;1.98;1.55;;;12.60;48.00;;;;;;4993493;28;20038;-38
2021/04/16 13:39:39;;;;;;;2.38;1.52;;;12.70;48.70;;;;;;5004749;28;20045;-36
2021/04/16 13:42:05;;;;;;;3.28;1.98;;;12.70;49.00;;;;;;4992587;28;20151;-39
2021/04/16 13:44:30;;;;;;;3.45;1.75;;;12.70;49.00;;;;;;5005003;28;20076;-35
2021/04/16 13:47:03;;;;;;;3.33;1.83;;;12.80;49.40;;;;;;4991923;28;20121;-36
2021/04/16 13:49:46;;;;;;;;;;;12.80;49.80;;;;;;4994073;28;20587;-38
2021/04/16 13:52:13;;;;;;;3.33;2.00;;;12.80;49.40;;;;;;4997966;28;20234;-38
2021/04/16 13:54:39;;;;;;;4.65;1.92;;;12.70;49.20;;;;;;4991939;28;20022;-38
2021/04/16 13:57:06;;;;;;;4.95;2.40;;;12.70;49.60;;;;;;4994116;28;20049;-38
2021/04/16 13:59:32;;;;;;;2.90;1.95;;;12.70;49.80;;;;;;5003981;28;20029;-37
2021/04/16 14:01:58;;;;;;;3.78;2.38;;;12.70;50.30;;;;;;4994573;28;20026;-40
2021/04/16 14:04:27;;;;;;;3.22;1.73;;;12.80;50.30;;;;;;5001307;28;20034;-39
2021/04/16 14:06:58;;;;;;;2.70;1.92;;;12.90;50.30;;;;;;4997497;28;20050;-39
2021/04/16 14:09:25;;;;;;;2.35;1.83;;;12.90;50.50;;;;;;4999761;28;20087;-39
2021/04/16 14:11:52;;;;;;;3.80;2.13;;;13.00;49.60;;;;;;4999448;28;20033;-39
2021/04/16 14:14:25;;;;;;;4.57;1.95;;;13.00;49.30;;;;;;4991822;28;20015;-39
2021/04/16 14:16:55;;;;;;;2.30;1.70;;;13.00;48.80;;;;;;4993805;28;20037;-39
2021/04/16 14:19:30;;;;;;;2.88;1.45;;;13.00;48.20;;;;;;5002917;28;20044;-39
2021/04/16 14:21:58;;;;;;;3.28;1.40;;;13.10;48.20;;;;;;4998754;28;20080;-39
2021/04/16 14:24:23;;;;;;;1.40;1.30;;;13.10;48.60;;;;;;4994666;28;20881;-38
2021/04/16 14:26:51;;;;;;;3.45;1.73;;;13.20;49.00;;;;;;4999771;28;20030;-39
2021/04/16 14:29:17;;;;;;;1.63;1.23;;;13.20;48.70;;;;;;4994595;28;20068;-39
2021/04/16 14:31:44;;;;;;;2.85;1.50;;;13.20;49.10;;;;;;4986000;28;20050;-40
2021/04/16 14:34:16;;;;;;;2.40;1.48;;;13.20;49.10;;;;;;4995443;28;20030;-39
2021/04/16 14:36:42;;;;;;;2.80;1.83;;;13.30;49.20;;;;;;4984493;28;20532;-39
2021/04/16 14:39:08;;;;;;;4.30;1.52;;;13.30;49.40;;;;;;4996173;28;20026;-39
2021/04/16 14:41:37;;;;;;;1.98;1.67;;;13.30;48.80;;;;;;4984550;28;20489;-38
2021/04/16 14:44:08;;;;;;;2.58;1.45;;;13.50;48.50;;;;;;4996199;28;20576;-36
2021/04/16 14:46:33;;;;;;;2.03;1.30;;;13.50;48.50;;;;;;4984831;28;20536;-38
2021/04/16 14:49:00;;;;;;;2.22;1.50;;;13.50;48.50;;;;;;4990782;28;20034;-38
2021/04/16 14:51:30;;;;;;;2.53;1.70;;;13.50;48.20;;;;;;4984388;28;20141;-38
2021/04/16 14:53:59;;;;;;;4.28;1.60;;;13.60;48.40;;;;;;4995746;28;20787;-36
2021/04/16 14:56:34;;;;;;;5.43;2.05;;;13.60;48.60;;;;;;4983919;28;20157;-36
2021/04/16 14:59:22;;;;;;;3.03;1.58;;;13.60;48.60;;;;;;4994343;28;20099;-38
2021/04/16 15:01:50;;;;;;;2.00;1.55;;;13.60;48.10;;;;;;4967905;28;20412;-38
2021/04/16 15:04:16;;;;;;;1.52;1.20;;;13.50;47.90;;;;;;4998333;28;20025;-34
2021/04/16 15:06:44;;;;;;;4.05;1.50;;;13.60;47.70;;;;;;4990657;28;20081;-40
2021/04/16 15:09:13;;;;;;;1.80;1.50;;;13.60;47.40;;;;;;4999887;28;20105;-36
2021/04/16 15:11:42;;;;;;;2.40;1.60;;;13.70;47.50;;;;;;5006002;28;20030;-38
2021/04/16 15:14:25;;;;;;;3.33;1.50;;;13.70;47.90;;;;;;5003441;28;20125;-39
2021/04/16 15:16:53;;;;;;;3.65;1.67;;;13.80;48.30;;;;;;4990601;28;20398;-37
2021/04/16 15:19:43;;;;;;;7.43;2.20;;;13.90;48.60;;;;;;4994988;28;20571;-36
2021/04/16 15:22:12;;;;;;;3.15;1.80;;;14.00;48.50;;;;;;5004619;28;20026;-39